Time;durP1;ratioP1;P1;durP2;ratioP2;P2;SDS_P1;SDS_P2;PMS_P1;PMS_P2;Temp;Humidity;BMP_temperature;BMP_pressure;BME280_temperature;BME280_humidity;BME280_pressure;Samples;Min_cycle;Max_cycle;Signal;HPM_P1;HPM_P2
2021/06/03 03:28:47;;;;;;;4.32;3.20;;;13.40;95.50;;;;;;5107621;27;20354;-80
2021/06/03 03:31:15;;;;;;;7.90;3.50;;;13.40;96.10;;;;;;5106498;28;20115;-79
2021/06/03 03:33:43;;;;;;;7.00;3.85;;;13.50;96.20;;;;;;5106793;28;20039;-81
2021/06/03 03:36:09;;;;;;;5.35;3.25;;;13.50;96.70;;;;;;5106677;28;20028;-77
2021/06/03 03:38:37;;;;;;;6.20;2.92;;;13.60;96.50;;;;;;5091507;28;20024;-80
2021/06/03 03:41:30;;;;;;;5.60;3.05;;;13.60;96.40;;;;;;5092027;28;20028;-89
2021/06/03 03:43:56;;;;;;;3.80;3.00;;;13.70;96.20;;;;;;5090906;28;20106;-71
2021/06/03 03:46:26;;;;;;;4.57;2.75;;;13.80;96.10;;;;;;5090887;28;20023;-74
2021/06/03 03:48:55;;;;;;;3.92;2.95;;;13.90;96.30;;;;;;5090630;28;20489;-74
2021/06/03 03:51:23;;;;;;;3.33;2.90;;;14.00;95.60;;;;;;5106488;28;20030;-89
2021/06/03 03:53:51;;;;;;;5.22;3.10;;;14.00;95.30;;;;;;5090805;28;20063;-76
2021/06/03 03:56:25;;;;;;;3.85;2.88;;;14.00;94.80;;;;;;5091361;28;20032;-78
2021/06/03 03:58:54;;;;;;;4.07;2.60;;;14.10;95.10;;;;;;5106682;28;20017;-75
2021/06/03 04:01:22;;;;;;;2.60;2.40;;;14.10;94.70;;;;;;5090735;28;20024;-79
2021/06/03 04:04:03;;;;;;;7.40;3.65;;;14.20;94.30;;;;;;5090324;28;20032;-78
2021/06/03 04:06:39;;;;;;;3.30;3.00;;;14.20;94.30;;;;;;5090579;28;20024;-79
2021/06/03 04:09:07;;;;;;;2.92;2.72;;;14.20;94.50;;;;;;5090398;28;20020;-79
2021/06/03 04:11:33;;;;;;;4.90;3.10;;;14.20;94.60;;;;;;5090469;28;20032;-83
2021/06/03 04:14:02;;;;;;;5.50;3.35;;;14.20;94.40;;;;;;5090659;28;20431;-82
2021/06/03 04:16:28;;;;;;;3.85;3.00;;;14.20;94.10;;;;;;5090315;28;20359;-79
2021/06/03 04:18:56;;;;;;;5.28;3.28;;;14.20;94.40;;;;;;5088937;28;20127;-82
2021/06/03 04:21:28;;;;;;;4.28;2.72;;;14.20;94.10;;;;;;5090521;28;20016;-82
2021/06/03 04:23:54;;;;;;;3.15;2.85;;;14.20;94.20;;;;;;5090219;28;20021;-86
2021/06/03 04:26:22;;;;;;;3.30;2.70;;;14.20;93.70;;;;;;5088283;28;20028;-82
2021/06/03 04:28:48;;;;;;;3.83;2.78;;;14.30;93.80;;;;;;5089824;28;20597;-75
2021/06/03 04:31:16;;;;;;;3.53;2.88;;;14.30;93.80;;;;;;5089918;28;20035;-76
2021/06/03 04:33:42;;;;;;;3.20;2.90;;;14.30;94.10;;;;;;5089131;28;20027;-79
2021/06/03 04:36:08;;;;;;;3.38;2.95;;;14.40;93.50;;;;;;5079898;28;20108;-81
2021/06/03 04:38:34;;;;;;;3.03;2.72;;;14.40;93.20;;;;;;5065313;28;20585;-77
2021/06/03 04:41:01;;;;;;;7.97;3.17;;;14.40;93.40;;;;;;5056670;28;20036;-80
2021/06/03 04:43:29;;;;;;;4.55;3.03;;;14.50;92.90;;;;;;5054542;28;20066;-80
2021/06/03 04:45:57;;;;;;;6.97;3.08;;;14.50;92.90;;;;;;5055105;28;20163;-82
2021/06/03 04:48:23;;;;;;;3.78;3.03;;;14.50;93.50;;;;;;5055021;28;20057;-78
2021/06/03 04:50:49;;;;;;;3.25;2.90;;;14.70;93.00;;;;;;5054901;28;20056;-81
2021/06/03 04:53:18;;;;;;;5.43;3.22;;;14.70;92.60;;;;;;5056705;28;20438;-78
2021/06/03 04:55:52;;;;;;;4.45;2.95;;;14.80;92.60;;;;;;5056126;28;20021;-87
2021/06/03 04:58:28;;;;;;;6.10;2.88;;;14.80;92.60;;;;;;5056101;28;20414;-83
2021/06/03 05:01:04;;;;;;;3.13;2.70;;;15.00;92.50;;;;;;5056325;28;20017;-86
2021/06/03 05:03:35;;;;;;;5.13;2.95;;;15.00;92.80;;;;;;5056034;28;20386;-80
2021/06/03 05:06:13;;;;;;;;;;;;;;;;;;;;;
2021/06/03 05:08:39;;;;;;;3.97;3.35;;;15.20;92.60;;;;;;5056142;28;20035;-76
2021/06/03 05:11:20;;;;;;;3.92;2.72;;;15.30;92.10;;;;;;5055290;28;20112;-79
2021/06/03 05:13:47;;;;;;;;;;;15.40;91.80;;;;;;5056342;28;20436;-85
2021/06/03 05:16:15;;;;;;;4.00;3.20;;;15.50;91.40;;;;;;5055893;28;19995;-78
2021/06/03 05:18:43;;;;;;;3.28;2.95;;;15.50;91.40;;;;;;5055992;28;20049;-76
2021/06/03 05:21:19;;;;;;;4.15;3.10;;;15.60;91.60;;;;;;5055905;28;20039;-76
2021/06/03 05:23:47;;;;;;;5.45;2.83;;;15.60;91.60;;;;;;5055662;28;20079;-77
2021/06/03 05:26:13;;;;;;;3.38;2.80;;;15.70;91.40;;;;;;5055574;28;20083;-76
2021/06/03 05:28:41;;;;;;;3.95;2.65;;;15.90;90.30;;;;;;5055221;28;20041;-77
2021/06/03 05:31:09;;;;;;;3.67;3.00;;;15.80;90.70;;;;;;5055823;28;20505;-76
2021/06/03 05:33:37;;;;;;;3.72;2.60;;;15.80;90.60;;;;;;5055479;28;20024;-80
2021/06/03 05:36:03;;;;;;;3.95;2.95;;;15.90;90.60;;;;;;5054486;28;20028;-79
2021/06/03 05:38:29;;;;;;;4.10;2.90;;;16.00;90.20;;;;;;5070363;28;20029;-81
2021/06/03 05:40:55;;;;;;;3.60;3.00;;;16.00;89.50;;;;;;5090984;28;20081;-74
2021/06/03 05:43:24;;;;;;;5.32;3.00;;;16.00;90.60;;;;;;5074574;28;20025;-75
2021/06/03 05:46:09;;;;;;;3.97;2.78;;;16.00;90.50;;;;;;5076692;28;20454;-74
2021/06/03 05:48:37;;;;;;;4.57;2.88;;;16.10;90.00;;;;;;5075612;28;20446;-78
2021/06/03 05:51:07;;;;;;;2.70;2.42;;;16.20;89.70;;;;;;5074067;28;20382;-85
2021/06/03 05:53:42;;;;;;;7.60;2.80;;;16.20;89.50;;;;;;5073550;28;20048;-81
2021/06/03 05:56:14;;;;;;;3.28;2.75;;;16.30;89.60;;;;;;5075460;28;20021;-75
2021/06/03 05:58:42;;;;;;;4.82;2.65;;;16.30;90.00;;;;;;5075579;28;20454;-78
2021/06/03 06:01:07;;;;;;;4.25;3.00;;;16.40;89.80;;;;;;5075195;28;20103;-78
2021/06/03 06:08:40;;;;;;;3.17;2.50;;;16.60;90.30;;;;;;5074267;28;20025;-82
2021/06/03 06:11:07;;;;;;;4.65;2.80;;;16.70;89.80;;;;;;5074782;28;20096;-78
2021/06/03 06:13:56;;;;;;;3.95;2.80;;;16.70;89.90;;;;;;5074281;28;20048;-74
2021/06/03 06:16:22;;;;;;;4.03;2.80;;;16.70;90.10;;;;;;5069389;28;20025;-79
2021/06/03 06:19:04;;;;;;;;;;;;;;;;;;;;;
2021/06/03 06:21:53;;;;;;;5.35;2.90;;;16.90;89.10;;;;;;5052965;28;20036;-75
2021/06/03 06:24:19;;;;;;;4.07;2.80;;;17.00;89.50;;;;;;5050558;28;20044;-79
2021/06/03 06:26:45;;;;;;;3.08;2.88;;;17.10;88.00;;;;;;5052588;28;20049;-78
2021/06/03 06:29:13;;;;;;;3.63;3.30;;;17.10;87.50;;;;;;5053929;28;20029;-73
2021/06/03 06:31:39;;;;;;;7.45;4.57;;;17.10;88.60;;;;;;5071345;28;20021;-74
2021/06/03 06:34:05;;;;;;;3.83;3.20;;;17.10;87.80;;;;;;5074172;28;20082;-78
2021/06/03 06:36:44;;;;;;;5.00;4.30;;;17.10;88.00;;;;;;5073005;28;20049;-91
2021/06/03 06:39:10;;;;;;;2.75;2.55;;;17.10;85.90;;;;;;5072904;28;20060;-81
2021/06/03 06:41:42;;;;;;;5.18;2.92;;;17.20;85.80;;;;;;5074058;28;20062;-79
2021/06/03 06:44:10;;;;;;;2.40;2.20;;;17.20;84.80;;;;;;5074390;28;20020;-88
2021/06/03 06:46:47;;;;;;;4.88;2.47;;;17.20;84.70;;;;;;5089288;28;20081;-84
2021/06/03 06:49:18;;;;;;;4.80;2.45;;;17.30;83.60;;;;;;5074345;28;20048;-81
2021/06/03 06:51:44;;;;;;;7.15;2.90;;;17.30;82.20;;;;;;5074360;28;20107;-83
2021/06/03 06:54:10;;;;;;;5.35;2.60;;;17.40;82.10;;;;;;5089553;28;20389;-82
2021/06/03 06:56:39;;;;;;;2.50;2.28;;;17.30;83.10;;;;;;5074025;28;20024;-76
2021/06/03 06:59:10;;;;;;;4.22;2.55;;;17.40;80.80;;;;;;5073996;28;20024;-85
2021/06/03 07:01:36;;;;;;;5.07;2.67;;;17.50;81.40;;;;;;5073721;28;20498;-79
2021/06/03 07:04:15;;;;;;;3.05;2.70;;;17.40;82.70;;;;;;5073675;28;20424;-79
2021/06/03 07:06:40;;;;;;;5.72;2.35;;;17.50;82.10;;;;;;5074457;28;20028;-81
2021/06/03 07:09:07;;;;;;;2.22;2.13;;;17.50;80.80;;;;;;5073991;28;20032;-84
2021/06/03 07:11:44;;;;;;;2.78;2.58;;;17.50;81.90;;;;;;5074478;28;20016;-80
2021/06/03 07:14:09;;;;;;;3.28;2.30;;;17.50;81.60;;;;;;5073025;28;20025;-91
2021/06/03 07:16:37;;;;;;;4.13;2.60;;;17.60;81.60;;;;;;5084721;28;20032;-76
2021/06/03 07:19:03;;;;;;;3.38;2.10;;;17.70;81.40;;;;;;5071001;28;20029;-79
2021/06/03 07:21:30;;;;;;;1.98;1.85;;;17.80;78.30;;;;;;5067455;28;20386;-76
2021/06/03 07:24:05;;;;;;;4.68;2.10;;;17.90;74.40;;;;;;5072797;28;20028;-78
2021/06/03 07:26:48;;;;;;;5.30;2.38;;;18.00;71.60;;;;;;5072409;28;20029;-89
2021/06/03 07:29:21;;;;;;;3.38;2.40;;;18.10;72.50;;;;;;5072313;28;20029;-81
2021/06/03 07:31:49;;;;;;;2.50;2.30;;;18.10;71.70;;;;;;5072628;28;20029;-82
2021/06/03 07:34:27;;;;;;;3.58;2.35;;;18.10;72.80;;;;;;5075961;28;20028;-77
2021/06/03 07:36:53;;;;;;;2.30;1.88;;;18.10;71.50;;;;;;5067491;28;20131;-89
2021/06/03 07:39:21;;;;;;;3.80;2.80;;;18.10;71.50;;;;;;5072539;28;20473;-88
2021/06/03 07:42:14;;;;;;;3.05;2.45;;;18.20;71.20;;;;;;5071655;28;20501;-86
2021/06/03 07:44:41;;;;;;;3.20;2.13;;;18.20;70.80;;;;;;5054916;28;20037;-84
2021/06/03 07:47:07;;;;;;;3.75;2.63;;;18.30;70.10;;;;;;5036307;28;20036;-77
2021/06/03 07:49:33;;;;;;;3.00;2.15;;;18.40;69.90;;;;;;5058172;28;20032;-85
2021/06/03 07:52:02;;;;;;;2.83;2.13;;;18.50;70.10;;;;;;5088914;28;20029;-90
2021/06/03 07:54:33;;;;;;;4.25;2.08;;;18.60;70.60;;;;;;5068978;28;20043;-77
2021/06/03 07:57:02;;;;;;;3.75;2.35;;;18.70;71.50;;;;;;5073212;28;20112;-84
2021/06/03 07:59:32;;;;;;;2.45;2.05;;;18.70;69.00;;;;;;5073777;28;20137;-84
2021/06/03 08:02:00;;;;;;;2.70;2.40;;;18.90;69.60;;;;;;5054812;28;20041;-84
2021/06/03 08:04:30;;;;;;;2.83;2.10;;;19.00;70.60;;;;;;5072714;28;20040;-79
2021/06/03 08:06:56;;;;;;;4.43;2.20;;;19.00;71.20;;;;;;5075761;28;20033;-87
2021/06/03 08:09:21;;;;;;;2.55;2.20;;;19.10;69.20;;;;;;5064571;28;20025;-85
2021/06/03 08:11:48;;;;;;;5.75;2.30;;;19.10;67.00;;;;;;5071684;28;20037;-78
2021/06/03 08:14:14;;;;;;;3.38;2.17;;;19.10;64.80;;;;;;5051738;28;20040;-78
2021/06/03 08:16:42;;;;;;;3.47;2.28;;;19.10;62.30;;;;;;5075697;28;20028;-79
2021/06/03 08:19:08;;;;;;;2.15;1.95;;;19.00;62.90;;;;;;5075768;28;20099;-82
2021/06/03 08:21:35;;;;;;;3.78;2.25;;;19.00;64.80;;;;;;5076099;28;20036;-79
2021/06/03 08:24:01;;;;;;;2.85;2.20;;;19.10;66.40;;;;;;5076772;28;20528;-83
2021/06/03 08:26:28;;;;;;;9.70;6.53;;;19.20;64.40;;;;;;5092374;28;20017;-83
2021/06/03 08:28:56;;;;;;;13.02;7.78;;;19.20;63.20;;;;;;5058681;28;20060;-81
2021/06/03 08:31:24;;;;;;;5.93;3.03;;;19.30;62.90;;;;;;5074883;28;20017;-87
2021/06/03 08:33:52;;;;;;;3.13;1.92;;;19.30;62.70;;;;;;5076149;28;20400;-75
2021/06/03 08:36:21;;;;;;;4.80;2.10;;;19.40;62.90;;;;;;5081926;28;20032;-79
2021/06/03 08:38:46;;;;;;;2.55;2.08;;;19.30;62.90;;;;;;5076147;28;20033;-76
2021/06/03 08:41:12;;;;;;;3.83;2.10;;;19.40;62.00;;;;;;5074430;28;20024;-81
2021/06/03 08:43:38;;;;;;;2.88;2.45;;;19.40;60.80;;;;;;5076026;28;20382;-76
2021/06/03 08:46:04;;;;;;;6.82;2.20;;;19.50;62.60;;;;;;5076133;28;20029;-87
2021/06/03 08:48:32;;;;;;;4.43;2.58;;;19.60;62.80;;;;;;5074851;28;20082;-84
2021/06/03 08:51:04;;;;;;;4.63;2.38;;;19.60;61.80;;;;;;5075343;28;20293;-87
2021/06/03 08:53:33;;;;;;;6.22;2.95;;;19.60;64.30;;;;;;5074069;28;20024;-76
2021/06/03 08:56:14;;;;;;;4.35;2.67;;;19.70;63.00;;;;;;5075343;28;20029;-80
2021/06/03 08:58:42;;;;;;;3.88;2.60;;;19.90;62.70;;;;;;5075609;28;20031;-81
2021/06/03 09:01:08;;;;;;;3.30;2.10;;;20.00;61.90;;;;;;5075577;28;20036;-79
2021/06/03 09:03:35;;;;;;;4.57;2.58;;;20.10;60.50;;;;;;5057022;28;20029;-84
2021/06/03 09:06:02;;;;;;;3.13;2.35;;;20.10;60.40;;;;;;5076456;28;20096;-81
2021/06/03 09:08:31;;;;;;;2.53;1.88;;;20.20;61.50;;;;;;5074633;28;20037;-80
2021/06/03 09:11:02;;;;;;;4.20;2.20;;;20.20;61.00;;;;;;5075619;28;20025;-76
2021/06/03 09:13:31;;;;;;;;;;;20.30;60.90;;;;;;5076163;28;20054;-82
2021/06/03 09:16:25;;;;;;;4.63;2.30;;;20.40;60.40;;;;;;5075695;28;19909;-80
2021/06/03 09:18:53;;;;;;;4.63;2.55;;;20.50;60.80;;;;;;5069798;28;20044;-82
2021/06/03 09:21:29;;;;;;;3.83;2.63;;;20.50;62.00;;;;;;5076472;28;20024;-81
2021/06/03 09:24:10;;;;;;;3.35;2.35;;;20.50;62.30;;;;;;5075301;28;20024;-82
2021/06/03 09:26:47;;;;;;;3.38;2.10;;;20.50;61.80;;;;;;5075825;28;20056;-88
2021/06/03 09:29:23;;;;;;;2.20;2.10;;;20.60;61.90;;;;;;5075706;28;20054;-78
2021/06/03 09:32:07;;;;;;;3.65;2.50;;;20.70;61.30;;;;;;5075588;28;20021;-82
2021/06/03 09:34:34;;;;;;;5.65;2.90;;;20.80;60.30;;;;;;5090945;28;20027;-76
2021/06/03 09:37:03;;;;;;;4.15;2.70;;;20.80;60.50;;;;;;5075712;28;20461;-80
2021/06/03 09:39:37;;;;;;;3.40;2.58;;;20.90;59.60;;;;;;5075098;28;20074;-79
2021/06/03 09:42:09;;;;;;;4.65;2.45;;;20.90;59.10;;;;;;5073315;28;20033;-83
2021/06/03 09:44:49;;;;;;;5.07;2.78;;;21.00;60.40;;;;;;5075641;28;20509;-86
2021/06/03 09:47:42;;;;;;;3.63;2.38;;;21.00;61.70;;;;;;5074837;28;20534;-89
2021/06/03 09:50:30;;;;;;;5.25;2.10;;;21.10;60.70;;;;;;5074585;28;20029;-79
2021/06/03 09:53:12;;;;;;;4.50;2.60;;;21.10;58.80;;;;;;5054477;28;20088;-92
2021/06/03 09:55:38;;;;;;;5.18;2.85;;;21.10;58.90;;;;;;5071411;28;20022;-77
2021/06/03 09:58:03;;;;;;;2.85;2.25;;;21.20;59.30;;;;;;5054003;28;20036;-79
2021/06/03 10:00:29;;;;;;;4.43;2.10;;;21.20;58.50;;;;;;5055312;28;20033;-77
2021/06/03 10:03:00;;;;;;;4.72;2.67;;;21.10;59.30;;;;;;5075083;28;20033;-89
2021/06/03 10:05:26;;;;;;;5.65;2.65;;;21.10;58.90;;;;;;5075633;28;20036;-78
2021/06/03 10:07:56;;;;;;;5.00;2.45;;;21.10;58.90;;;;;;5074255;28;20033;-88
2021/06/03 10:10:25;;;;;;;5.20;2.33;;;21.10;58.90;;;;;;5073777;28;20047;-91
2021/06/03 10:12:55;;;;;;;2.97;2.70;;;21.00;58.20;;;;;;5072703;28;20077;-86
2021/06/03 10:15:21;;;;;;;4.72;2.50;;;21.00;58.90;;;;;;5075835;28;20080;-90
2021/06/03 10:18:00;;;;;;;3.47;2.90;;;20.90;61.40;;;;;;5074546;28;20513;-91
2021/06/03 10:20:48;;;;;;;3.58;2.58;;;20.80;63.70;;;;;;5071464;28;20383;-87
2021/06/03 10:23:22;;;;;;;4.38;3.60;;;21.00;64.10;;;;;;5053823;28;20063;-89
2021/06/03 10:25:55;;;;;;;4.30;2.20;;;21.10;63.40;;;;;;5053709;28;20047;-78
2021/06/03 10:28:24;;;;;;;3.50;2.28;;;21.30;59.90;;;;;;5054427;28;20079;-87
2021/06/03 10:31:13;;;;;;;2.47;2.28;;;21.40;58.70;;;;;;5054578;28;20071;-80
2021/06/03 10:33:41;;;;;;;5.43;2.22;;;21.30;58.80;;;;;;5070434;28;20036;-84
2021/06/03 10:36:09;;;;;;;3.60;2.15;;;21.30;60.70;;;;;;5073630;28;20060;-85
2021/06/03 10:38:36;;;;;;;3.58;2.80;;;21.30;61.40;;;;;;5073944;28;20421;-92
2021/06/03 10:41:12;;;;;;;4.57;2.50;;;21.30;60.60;;;;;;5074439;28;20071;-88
2021/06/03 10:43:49;;;;;;;2.75;2.30;;;21.30;59.20;;;;;;5074422;28;20028;-82
2021/06/03 10:46:17;;;;;;;5.20;2.80;;;21.30;58.40;;;;;;5074371;28;20056;-82
2021/06/03 10:48:42;;;;;;;5.07;2.80;;;21.20;58.30;;;;;;5073837;28;20406;-92
2021/06/03 10:51:18;;;;;;;3.28;2.28;;;21.00;58.50;;;;;;5074637;28;20035;-81
2021/06/03 10:53:49;;;;;;;4.10;3.42;;;20.80;60.30;;;;;;5072105;28;20033;-83
2021/06/03 10:56:21;;;;;;;3.05;2.30;;;20.70;61.20;;;;;;5073822;28;20469;-81
2021/06/03 10:58:49;;;;;;;5.43;2.00;;;20.60;62.60;;;;;;5056572;28;20046;-81
2021/06/03 11:01:19;;;;;;;2.55;2.10;;;20.60;64.00;;;;;;5072357;28;20024;-85
2021/06/03 11:04:05;;;;;;;2.90;2.20;;;20.70;63.50;;;;;;5074148;28;20545;-85
2021/06/03 11:06:41;;;;;;;5.07;2.28;;;20.90;64.60;;;;;;5074013;28;20272;-80
2021/06/03 11:09:08;;;;;;;2.08;1.90;;;21.10;64.00;;;;;;5073485;28;20074;-85
2021/06/03 11:11:47;;;;;;;4.15;2.30;;;21.30;62.20;;;;;;5089770;28;20437;-84
2021/06/03 11:14:35;;;;;;;3.27;2.50;;;21.30;62.50;;;;;;5072998;28;20459;-80
2021/06/03 11:17:03;;;;;;;2.47;2.05;;;21.30;62.30;;;;;;5072952;28;20277;-82
2021/06/03 11:19:30;;;;;;;5.97;2.58;;;21.20;63.90;;;;;;5073532;28;20112;-80
2021/06/03 11:22:24;;;;;;;4.93;2.30;;;21.20;63.80;;;;;;5055553;28;20025;-81
2021/06/03 11:24:54;;;;;;;4.60;2.50;;;21.20;64.90;;;;;;5071884;28;20033;-79
2021/06/03 11:27:21;;;;;;;2.85;2.35;;;21.30;66.80;;;;;;5054471;28;20049;-92
2021/06/03 11:29:56;;;;;;;3.97;2.50;;;21.40;66.80;;;;;;5084051;28;20040;-79
2021/06/03 11:32:27;;;;;;;4.40;2.30;;;21.70;68.20;;;;;;5071685;28;20056;-77
2021/06/03 11:34:59;;;;;;;2.47;2.28;;;22.00;66.20;;;;;;5073323;28;20475;-85
2021/06/03 11:37:29;;;;;;;3.25;2.50;;;22.40;62.30;;;;;;5073645;28;20032;-80
2021/06/03 11:39:59;;;;;;;3.28;2.40;;;22.50;59.80;;;;;;5089300;28;20028;-84
2021/06/03 11:42:33;;;;;;;;;;;22.50;59.80;;;;;;5079542;28;20031;-81
2021/06/03 11:45:10;;;;;;;3.70;2.20;;;22.40;61.50;;;;;;5048628;28;19917;-78
2021/06/03 11:47:39;;;;;;;3.72;2.50;;;22.30;62.30;;;;;;5053141;28;20032;-89
2021/06/03 11:50:17;;;;;;;4.40;2.17;;;22.40;62.40;;;;;;5060516;28;20540;-85
2021/06/03 11:53:18;;;;;;;4.68;2.40;;;22.60;61.80;;;;;;5074474;28;20039;-80
2021/06/03 11:56:01;;;;;;;2.65;2.42;;;22.80;61.80;;;;;;5076702;28;20029;-78
2021/06/03 11:58:38;;;;;;;5.28;2.30;;;23.20;61.90;;;;;;5076961;28;20028;-78
2021/06/03 12:01:20;;;;;;;3.10;2.40;;;23.50;59.60;;;;;;5057244;28;20044;-79
2021/06/03 12:04:04;;;;;;;3.10;2.45;;;23.40;59.80;;;;;;5075592;28;20039;-81
2021/06/03 12:06:30;;;;;;;5.63;4.57;;;23.60;60.20;;;;;;5076370;28;20028;-80
2021/06/03 12:09:02;;;;;;;4.85;2.90;;;23.80;58.50;;;;;;5076892;28;20024;-85
2021/06/03 12:11:31;;;;;;;3.83;2.80;;;23.80;56.90;;;;;;5076622;28;20474;-82
2021/06/03 12:14:19;;;;;;;4.22;3.10;;;23.60;56.60;;;;;;5077319;28;20032;-83
2021/06/03 12:16:48;;;;;;;5.07;2.95;;;23.20;57.50;;;;;;5076883;28;20031;-82
2021/06/03 12:19:17;;;;;;;4.10;2.40;;;22.80;59.50;;;;;;5075275;28;20025;-81
2021/06/03 12:21:57;;;;;;;3.05;1.95;;;22.60;60.70;;;;;;5055631;28;20021;-79
2021/06/03 12:24:38;;;;;;;3.97;2.30;;;22.60;61.20;;;;;;5055862;28;20033;-83
2021/06/03 12:27:07;;;;;;;2.40;2.22;;;23.20;61.90;;;;;;5075145;28;20048;-82
2021/06/03 12:29:40;;;;;;;3.38;2.15;;;23.80;61.40;;;;;;5076755;28;20099;-85
2021/06/03 12:32:07;;;;;;;2.72;2.30;;;24.50;61.30;;;;;;5077002;28;20021;-86
2021/06/03 12:34:37;;;;;;;2.70;2.50;;;25.20;58.50;;;;;;5074868;28;20037;-82
2021/06/03 12:37:21;;;;;;;5.00;2.20;;;25.90;56.60;;;;;;5056822;28;20029;-80
2021/06/03 12:40:06;;;;;;;6.50;2.08;;;26.20;56.60;;;;;;5056887;28;20029;-82
2021/06/03 12:43:02;;;;;;;2.85;2.20;;;26.40;54.10;;;;;;5067949;28;20024;-85
2021/06/03 12:45:37;;;;;;;2.38;1.88;;;26.40;51.90;;;;;;5073864;28;20124;-78
2021/06/03 12:48:08;;;;;;;3.95;2.03;;;26.10;53.40;;;;;;5076092;28;20039;-81
2021/06/03 12:51:02;;;;;;;2.13;1.92;;;25.90;53.70;;;;;;5075883;28;20028;-78
2021/06/03 12:53:35;;;;;;;2.53;2.25;;;26.20;54.20;;;;;;5052245;28;20044;-81
2021/06/03 12:56:22;;;;;;;3.28;2.00;;;26.20;53.70;;;;;;5092066;28;20051;-79
2021/06/03 12:58:49;;;;;;;2.95;2.08;;;25.90;51.60;;;;;;5082738;28;20028;-83
2021/06/03 13:01:15;;;;;;;2.10;1.90;;;25.40;52.00;;;;;;5054389;28;20536;-79
2021/06/03 13:03:41;;;;;;;2.45;2.20;;;25.10;53.00;;;;;;5055928;28;20463;-78
2021/06/03 13:06:09;;;;;;;4.28;2.17;;;25.20;53.70;;;;;;5055944;28;20038;-82
2021/06/03 13:09:07;;;;;;;3.10;2.00;;;25.50;52.30;;;;;;5054649;28;20115;-82
2021/06/03 13:11:35;;;;;;;2.72;2.25;;;25.90;51.50;;;;;;5060610;28;20024;-78
2021/06/03 13:14:19;;;;;;;5.55;1.88;;;26.20;50.20;;;;;;5075573;28;20102;-79
2021/06/03 13:17:02;;;;;;;1.88;1.73;;;26.20;50.80;;;;;;5085340;28;20021;-79
2021/06/03 13:19:37;;;;;;;5.43;2.13;;;26.00;49.70;;;;;;5054349;28;20479;-79
2021/06/03 13:22:06;;;;;;;5.07;2.03;;;25.80;50.70;;;;;;5054034;28;20029;-79
2021/06/03 13:24:31;;;;;;;3.08;2.15;;;26.00;50.50;;;;;;5072990;28;20025;-82
2021/06/03 13:27:22;;;;;;;3.10;2.00;;;26.30;49.80;;;;;;5090738;28;20045;-81
2021/06/03 13:29:55;;;;;;;3.42;1.90;;;26.40;49.30;;;;;;5054933;28;20029;-85
2021/06/03 13:32:31;;;;;;;4.03;2.13;;;26.20;49.30;;;;;;5074053;28;20038;-82
2021/06/03 13:35:11;;;;;;;1.95;1.80;;;25.90;49.40;;;;;;5071714;28;20505;-81
2021/06/03 13:37:43;;;;;;;5.00;2.67;;;25.50;49.80;;;;;;5055100;28;20079;-82
2021/06/03 13:40:18;;;;;;;1.90;1.80;;;25.10;50.00;;;;;;5055414;28;20056;-84
2021/06/03 13:42:59;;;;;;;3.03;2.40;;;24.80;50.20;;;;;;5053780;28;20075;-75
2021/06/03 13:45:40;;;;;;;4.72;2.17;;;24.50;50.20;;;;;;5087476;28;20086;-90
2021/06/03 13:48:21;;;;;;;4.15;2.03;;;24.30;50.70;;;;;;5073364;28;20081;-83
2021/06/03 13:50:49;;;;;;;2.10;2.00;;;23.90;52.00;;;;;;5074517;28;20016;-78
2021/06/03 13:53:37;;;;;;;4.10;2.40;;;23.70;52.00;;;;;;5072764;28;20051;-75
2021/06/03 13:56:21;;;;;;;2.05;1.88;;;23.50;50.90;;;;;;5090209;28;20489;-86
2021/06/03 13:59:02;;;;;;;3.20;2.10;;;23.20;51.40;;;;;;5090292;28;20028;-77
2021/06/03 14:01:33;;;;;;;4.75;2.45;;;23.10;51.70;;;;;;5074564;28;20592;-83
2021/06/03 14:04:15;;;;;;;3.78;2.20;;;22.80;52.30;;;;;;5074591;28;20489;-85
2021/06/03 14:06:47;;;;;;;3.45;2.58;;;22.70;53.60;;;;;;5074545;28;20048;-76
2021/06/03 14:09:16;;;;;;;7.45;3.30;;;22.50;54.40;;;;;;5090379;28;20470;-88
2021/06/03 14:11:52;;;;;;;2.97;2.22;;;22.40;55.60;;;;;;5072903;28;20028;-89
2021/06/03 14:14:26;;;;;;;7.25;3.75;;;22.30;56.60;;;;;;5074462;28;20029;-75
2021/06/03 14:17:05;;;;;;;10.30;6.20;;;22.10;56.60;;;;;;5074599;28;20028;-80
2021/06/03 14:19:48;;;;;;;6.47;3.78;;;22.10;57.20;;;;;;5073079;28;20036;-83
2021/06/03 14:22:27;;;;;;;2.88;2.40;;;22.10;57.90;;;;;;5089794;28;20029;-79
2021/06/03 14:24:53;;;;;;;2.08;1.95;;;22.20;58.10;;;;;;5074185;28;20048;-79
2021/06/03 14:27:37;;;;;;;;;;;;;;;;;;;;;
2021/06/03 14:30:09;;;;;;;4.03;2.30;;;22.60;56.70;;;;;;5073727;28;20027;-86
2021/06/03 14:32:53;;;;;;;3.42;2.40;;;22.80;56.40;;;;;;5052792;28;20032;-81
2021/06/03 14:35:27;;;;;;;2.97;1.98;;;23.00;56.80;;;;;;5053913;28;20048;-90
2021/06/03 14:38:09;;;;;;;3.45;2.10;;;23.20;56.50;;;;;;5054271;28;20198;-86
2021/06/03 14:40:43;;;;;;;3.55;1.90;;;23.30;53.10;;;;;;5069508;28;20124;-90
2021/06/03 14:43:17;;;;;;;5.10;2.40;;;23.10;51.90;;;;;;5053958;28;20024;-80
2021/06/03 14:45:48;;;;;;;5.55;2.42;;;22.80;52.50;;;;;;5053788;28;20394;-80
2021/06/03 14:48:22;;;;;;;4.00;2.15;;;22.60;52.90;;;;;;5074537;28;20028;-78
2021/06/03 14:50:51;;;;;;;2.08;1.80;;;22.50;53.10;;;;;;5053926;28;20033;-83
2021/06/03 14:53:19;;;;;;;7.20;1.88;;;22.30;53.30;;;;;;5073783;28;20095;-82
2021/06/03 14:55:51;;;;;;;2.70;1.92;;;22.20;53.10;;;;;;5055779;28;20033;-84
2021/06/03 14:58:17;;;;;;;2.92;2.00;;;22.20;53.50;;;;;;5072090;28;20036;-85
2021/06/03 15:00:56;;;;;;;1.67;1.55;;;22.10;54.10;;;;;;5069414;28;20036;-80
2021/06/03 15:03:28;;;;;;;4.63;2.22;;;22.00;55.20;;;;;;5073496;28;20109;-87
2021/06/03 15:06:07;;;;;;;2.80;2.60;;;22.00;55.10;;;;;;5088884;28;20039;-80
2021/06/03 15:08:38;;;;;;;5.93;2.80;;;21.90;55.40;;;;;;5072175;28;20044;-81
2021/06/03 15:11:07;;;;;;;3.10;2.30;;;21.80;55.70;;;;;;5073251;28;20021;-82
2021/06/03 15:13:36;;;;;;;3.53;2.10;;;21.70;56.60;;;;;;5073293;28;20095;-83
2021/06/03 15:16:05;;;;;;;4.40;2.40;;;21.50;56.90;;;;;;5073624;28;20400;-89
2021/06/03 15:18:34;;;;;;;3.15;2.40;;;21.50;57.00;;;;;;5055519;28;20038;-81
2021/06/03 15:21:04;;;;;;;2.50;2.30;;;21.40;57.60;;;;;;5072417;28;20134;-85
2021/06/03 15:23:32;;;;;;;3.35;2.40;;;21.30;57.90;;;;;;5087579;28;20067;-83
2021/06/03 15:26:01;;;;;;;2.72;2.20;;;21.30;58.20;;;;;;5072696;28;20435;-87
2021/06/03 15:28:37;;;;;;;3.90;2.35;;;21.20;58.30;;;;;;5088080;28;20052;-85
2021/06/03 15:31:08;;;;;;;4.60;1.92;;;21.20;58.60;;;;;;5072851;28;20190;-88
2021/06/03 15:33:34;;;;;;;5.25;2.25;;;21.10;58.50;;;;;;5051861;28;20491;-83
2021/06/03 15:36:22;;;;;;;3.08;2.35;;;21.00;58.90;;;;;;5051979;28;20025;-78
2021/06/03 15:38:48;;;;;;;4.15;2.50;;;21.00;58.50;;;;;;5051689;28;20475;-84
2021/06/03 15:41:13;;;;;;;6.43;2.60;;;20.90;58.90;;;;;;5051466;28;20087;-81
2021/06/03 15:43:41;;;;;;;4.43;2.22;;;20.90;59.10;;;;;;5052674;28;20039;-84
2021/06/03 15:46:07;;;;;;;3.47;2.30;;;20.90;59.50;;;;;;5067711;28;20474;-82
2021/06/03 15:48:32;;;;;;;4.22;2.55;;;20.80;59.00;;;;;;5072930;28;20051;-80
2021/06/03 15:50:58;;;;;;;3.28;2.35;;;20.70;58.90;;;;;;5072910;28;20533;-82
2021/06/03 15:53:37;;;;;;;2.38;2.08;;;20.70;59.40;;;;;;5072902;28;20481;-89
2021/06/03 15:56:10;;;;;;;3.10;2.70;;;20.60;59.60;;;;;;5072903;28;20100;-81
2021/06/03 15:58:43;;;;;;;3.30;2.42;;;20.60;60.00;;;;;;5072359;28;20103;-80
2021/06/03 16:01:10;;;;;;;4.47;2.65;;;20.50;60.40;;;;;;5073089;28;20032;-88
2021/06/03 16:03:36;;;;;;;3.17;2.55;;;20.50;59.90;;;;;;5071907;28;20028;-92
2021/06/03 16:06:02;;;;;;;3.28;2.40;;;20.40;60.10;;;;;;5054930;28;20037;-83
2021/06/03 16:08:46;;;;;;;2.70;2.50;;;20.40;60.20;;;;;;5072663;28;20032;-84
2021/06/03 16:11:13;;;;;;;4.18;2.50;;;20.30;60.40;;;;;;5072503;28;20405;-85
2021/06/03 16:13:41;;;;;;;6.43;2.75;;;20.30;60.40;;;;;;5072992;28;20032;-85
2021/06/03 16:16:07;;;;;;;4.57;2.40;;;20.30;60.40;;;;;;5071657;28;20028;-83
2021/06/03 16:18:35;;;;;;;4.72;2.53;;;20.30;60.20;;;;;;5072117;28;20012;-84
2021/06/03 16:21:12;;;;;;;4.45;2.50;;;20.30;60.50;;;;;;5072742;28;20082;-81
2021/06/03 16:23:53;;;;;;;3.40;2.30;;;20.20;60.50;;;;;;5072068;28;20477;-83
2021/06/03 16:26:23;;;;;;;4.95;2.67;;;20.20;60.80;;;;;;5056940;28;20181;-92
2021/06/03 16:28:52;;;;;;;3.13;2.67;;;20.10;61.10;;;;;;5071295;28;20198;-88
2021/06/03 16:31:19;;;;;;;6.45;3.25;;;20.10;61.60;;;;;;5071246;28;20111;-87
2021/06/03 16:34:15;;;;;;;4.25;3.00;;;20.00;61.70;;;;;;5071372;28;20025;-82
2021/06/03 16:36:42;;;;;;;3.60;2.95;;;20.10;61.60;;;;;;5075979;28;20363;-79
2021/06/03 16:39:10;;;;;;;4.35;3.13;;;20.00;61.90;;;;;;5076208;28;20036;-77
2021/06/03 16:41:44;;;;;;;3.28;2.75;;;20.00;62.20;;;;;;5074858;28;20028;-85
2021/06/03 16:44:09;;;;;;;3.33;2.70;;;19.90;62.00;;;;;;5075863;28;20052;-78
2021/06/03 16:46:36;;;;;;;3.33;2.97;;;19.90;62.20;;;;;;5075296;28;20121;-82
2021/06/03 16:49:02;;;;;;;4.78;3.03;;;19.90;62.50;;;;;;5074357;28;20048;-78